createdAt,value
2018-03-21T00:02:00.489Z,10.27
2018-03-21T00:05:04.708Z,8.40
2018-03-21T00:08:09.162Z,10.30
2018-03-21T00:11:12.429Z,8.83
2018-03-21T00:14:25.575Z,10.30
2018-03-21T00:17:28.878Z,9.30
2018-03-21T00:20:32.189Z,8.90
2018-03-21T00:23:55.281Z,10.30
2018-03-21T00:26:58.578Z,14.20
2018-03-21T00:30:01.810Z,13.23
2018-03-21T00:33:10.701Z,10.10
2018-03-21T00:36:18.923Z,10.20
2018-03-21T00:39:23.206Z,12.47
2018-03-21T00:42:26.425Z,13.90
2018-03-21T00:45:29.701Z,13.03
2018-03-21T00:48:34.012Z,13.20
2018-03-21T00:51:38.447Z,12.53
2018-03-21T00:54:46.002Z,11.20
2018-03-21T00:57:55.021Z,12.43
2018-03-21T01:00:58.377Z,10.40
2018-03-21T01:04:05.144Z,12.33
2018-03-21T01:07:08.460Z,11.97
2018-03-21T01:10:13.879Z,12.33
2018-03-21T01:13:17.145Z,14.70
2018-03-21T01:16:23.685Z,14.57
2018-03-21T01:19:26.928Z,15.43
2018-03-21T01:22:30.181Z,12.50
2018-03-21T01:25:34.382Z,15.90
2018-03-21T01:28:43.930Z,14.17
2018-03-21T01:31:47.205Z,18.13
2018-03-21T01:35:00.621Z,19.07
2018-03-21T01:38:03.871Z,16.93
2018-03-21T01:41:24.089Z,16.60
2018-03-21T01:44:29.357Z,12.47
2018-03-21T01:47:40.930Z,12.47
2018-03-21T01:50:45.900Z,10.80
2018-03-21T01:53:49.246Z,9.70
2018-03-21T01:56:54.892Z,10.57
2018-03-21T01:59:58.131Z,8.70
2018-03-21T02:03:01.427Z,10.90
2018-03-21T02:06:04.727Z,11.20
2018-03-21T02:09:09.017Z,9.50
2018-03-21T02:12:13.584Z,12.10
2018-03-21T02:15:16.896Z,10.07
2018-03-21T02:18:20.197Z,10.77
2018-03-21T02:21:24.064Z,10.13
2018-03-21T02:24:27.385Z,10.20
2018-03-21T02:27:30.669Z,12.73
2018-03-21T02:30:33.950Z,10.27
2018-03-21T02:33:39.058Z,11.77
2018-03-21T02:36:43.368Z,10.37
2018-03-21T02:39:57.744Z,12.17
2018-03-21T02:43:02.376Z,11.90
2018-03-21T02:46:07.822Z,12.90
2018-03-21T02:49:17.889Z,11.37
2018-03-21T02:52:21.241Z,12.17
2018-03-21T02:55:25.557Z,11.20
2018-03-21T02:58:35.840Z,13.93
2018-03-21T03:01:39.656Z,10.80
2018-03-21T03:04:43.011Z,11.03
2018-03-21T03:07:46.371Z,9.67
2018-03-21T03:10:50.666Z,11.80
2018-03-21T03:13:54.029Z,13.10
2018-03-21T03:16:57.336Z,11.07
2018-03-21T03:20:05.676Z,14.90
2018-03-21T03:23:27.009Z,13.67
2018-03-21T03:26:30.224Z,10.57
2018-03-21T03:29:57.535Z,13.50
2018-03-21T03:33:00.774Z,13.57
2018-03-21T03:36:04.144Z,11.53
2018-03-21T03:39:15.325Z,11.23
2018-03-21T03:42:26.369Z,12.00
2018-03-21T03:45:29.702Z,9.60
2018-03-21T03:48:33.224Z,11.13
2018-03-21T03:51:40.230Z,14.17
2018-03-21T03:54:43.406Z,12.20
2018-03-21T03:57:47.728Z,9.93
2018-03-21T04:00:51.073Z,15.20
2018-03-21T04:03:54.446Z,10.97
2018-03-21T04:06:57.717Z,12.27
2018-03-21T04:10:01.030Z,11.30
2018-03-21T04:13:04.326Z,12.03
2018-03-21T04:16:09.684Z,9.13
2018-03-21T04:19:12.977Z,9.70
2018-03-21T04:22:25.254Z,11.77
2018-03-21T04:25:28.521Z,15.00
2018-03-21T04:28:31.819Z,9.70
2018-03-21T04:31:37.111Z,12.27
2018-03-21T04:34:46.588Z,10.23
2018-03-21T04:37:49.902Z,13.37
2018-03-21T04:40:55.857Z,12.53
2018-03-21T04:43:59.170Z,9.07
2018-03-21T04:47:03.441Z,10.93
2018-03-21T04:50:06.729Z,11.23
2018-03-21T04:53:10.017Z,13.63
2018-03-21T04:56:13.288Z,9.00
2018-03-21T04:59:16.536Z,10.27
2018-03-21T05:02:19.854Z,9.47
2018-03-21T05:05:23.149Z,11.87
2018-03-21T05:08:26.478Z,11.67
2018-03-21T05:11:31.282Z,13.20
2018-03-21T05:14:34.592Z,11.40
2018-03-21T05:17:39.002Z,12.10
2018-03-21T05:20:42.436Z,10.47
2018-03-21T05:23:45.728Z,13.20
2018-03-21T05:26:49.204Z,9.73
2018-03-21T05:29:54.179Z,11.77
2018-03-21T05:32:57.442Z,11.73
2018-03-21T05:36:00.880Z,13.53
2018-03-21T05:39:08.541Z,11.77
2018-03-21T05:42:12.029Z,11.73
2018-03-21T05:45:16.284Z,11.27
2018-03-21T05:48:19.548Z,12.43
2018-03-21T05:51:22.900Z,11.37
2018-03-21T05:54:26.180Z,11.20
2018-03-21T05:57:29.331Z,10.27
2018-03-21T06:00:33.095Z,11.53
2018-03-21T06:03:37.378Z,13.97
2018-03-21T06:06:40.626Z,18.17
2018-03-21T06:09:43.935Z,14.77
2018-03-21T06:12:47.373Z,16.20
2018-03-21T06:15:50.694Z,16.90
2018-03-21T06:18:54.017Z,14.23
2018-03-21T06:21:58.353Z,14.07
2018-03-21T06:25:01.626Z,14.60
2018-03-21T06:28:04.996Z,15.33
2018-03-21T06:31:08.332Z,14.40
2018-03-21T06:34:11.614Z,14.00
2018-03-21T06:37:15.767Z,16.87
2018-03-21T06:40:21.072Z,16.40
2018-03-21T06:43:25.336Z,14.77
2018-03-21T06:46:28.669Z,15.80
2018-03-21T06:49:32.010Z,14.90
2018-03-21T06:52:41.921Z,13.33
2018-03-21T06:55:45.181Z,18.60
2018-03-21T06:58:48.459Z,15.43
2018-03-21T07:01:51.989Z,11.07
2018-03-21T07:04:56.368Z,12.57
2018-03-21T07:07:59.512Z,14.33
2018-03-21T07:11:03.777Z,11.63
2018-03-21T07:16:21.189Z,14.17
2018-03-21T07:19:26.359Z,11.50
2018-03-21T07:22:29.556Z,9.83
2018-03-21T07:25:32.761Z,11.60
2018-03-21T07:28:38.085Z,11.70
2018-03-21T07:31:41.324Z,11.30
2018-03-21T07:34:44.656Z,11.40
2018-03-21T07:37:47.920Z,10.13
2018-03-21T07:40:58.047Z,11.60
2018-03-21T07:44:02.258Z,10.60
2018-03-21T07:47:05.464Z,12.30
2018-03-21T07:50:08.785Z,14.03
2018-03-21T07:53:15.824Z,13.10
2018-03-21T07:56:19.028Z,11.73
2018-03-21T07:59:22.312Z,13.67
2018-03-21T08:02:26.726Z,12.00
2018-03-21T08:05:29.945Z,13.03
2018-03-21T08:08:33.131Z,14.63
2018-03-21T08:11:36.422Z,16.37
2018-03-21T08:14:39.684Z,16.10
2018-03-21T08:17:42.873Z,11.63
2018-03-21T08:20:48.076Z,14.53
2018-03-21T08:23:56.727Z,11.27
2018-03-21T08:26:59.865Z,11.23
2018-03-21T08:30:04.020Z,10.20
2018-03-21T08:33:07.199Z,11.10
2018-03-21T08:36:11.352Z,12.37
2018-03-21T08:39:16.528Z,9.83
2018-03-21T08:42:20.088Z,9.83
2018-03-21T08:45:30.403Z,9.80
2018-03-21T08:48:37.288Z,8.80
2018-03-21T08:51:40.504Z,9.67
2018-03-21T08:54:43.624Z,8.33
2018-03-21T08:57:47.775Z,5.30
2018-03-21T09:00:50.896Z,7.33
2018-03-21T09:03:55.052Z,8.17
2018-03-21T09:06:59.182Z,7.93
2018-03-21T09:10:07.964Z,7.20
2018-03-21T09:13:12.105Z,6.00
2018-03-21T09:16:16.243Z,8.63
2018-03-21T09:19:25.594Z,8.63
2018-03-21T09:22:28.800Z,8.87
2018-03-21T09:25:31.958Z,6.40
2018-03-21T09:28:35.101Z,8.30
2018-03-21T09:31:43.379Z,6.73
2018-03-21T09:34:53.383Z,5.30
2018-03-21T09:37:56.544Z,5.57
2018-03-21T09:40:59.705Z,9.27
2018-03-21T09:44:02.908Z,8.47
2018-03-21T09:47:06.011Z,7.77
2018-03-21T09:50:11.202Z,7.73
2018-03-21T09:53:14.326Z,6.50
2018-03-21T09:56:17.432Z,5.05
2018-03-21T09:59:20.572Z,5.75
2018-03-21T10:02:24.711Z,7.08
2018-03-21T10:05:28.851Z,6.42
2018-03-21T10:08:36.529Z,5.40
2018-03-21T10:11:39.727Z,6.75
2018-03-21T10:14:42.880Z,8.55
2018-03-21T10:17:50.488Z,7.03
2018-03-21T10:20:57.189Z,6.45
2018-03-21T10:24:04.751Z,8.88
2018-03-21T10:27:13.524Z,6.67
2018-03-21T10:30:17.640Z,6.90
2018-03-21T10:33:20.780Z,11.12
2018-03-21T10:36:23.907Z,6.43
2018-03-21T10:39:28.050Z,7.60
2018-03-21T10:42:31.164Z,6.35
2018-03-21T10:45:34.281Z,7.15
2018-03-21T10:48:37.434Z,4.62
2018-03-21T10:51:41.624Z,5.07
2018-03-21T10:54:45.125Z,4.70
2018-03-21T10:57:53.632Z,5.10
2018-03-21T11:01:01.681Z,6.13
2018-03-21T11:04:05.838Z,4.37
2018-03-21T11:07:08.965Z,6.77
2018-03-21T11:10:12.149Z,5.07
2018-03-21T11:13:17.300Z,5.77
2018-03-21T11:16:20.519Z,6.65
2018-03-21T11:19:23.767Z,4.28
2018-03-21T11:22:27.863Z,4.33
2018-03-21T11:25:35.228Z,6.47
2018-03-21T11:28:42.960Z,5.63
2018-03-21T11:31:53.918Z,3.07
2018-03-21T11:34:57.082Z,3.47
2018-03-21T11:38:00.191Z,5.17
2018-03-21T11:41:05.356Z,4.40
2018-03-21T11:44:09.528Z,6.03
2018-03-21T11:47:13.739Z,4.03
2018-03-21T11:50:16.910Z,3.17
2018-03-21T11:53:21.080Z,3.23
2018-03-21T11:56:25.261Z,6.67
2018-03-21T11:59:28.307Z,3.77
2018-03-21T12:02:32.484Z,2.98
2018-03-21T12:05:45.572Z,5.37
2018-03-21T12:08:49.689Z,4.23
2018-03-21T12:11:52.858Z,5.00
2018-03-21T12:14:56.052Z,3.60
2018-03-21T12:18:12.296Z,4.27
2018-03-21T12:21:25.791Z,4.15
2018-03-21T12:24:28.967Z,3.07
2018-03-21T12:27:32.084Z,2.80
2018-03-21T12:30:37.258Z,5.17
2018-03-21T12:33:44.193Z,3.37
2018-03-21T12:36:49.359Z,3.50
2018-03-21T12:39:59.617Z,3.62
2018-03-21T12:43:08.855Z,2.77
2018-03-21T12:46:12.044Z,4.63
2018-03-21T12:49:16.189Z,4.15
2018-03-21T12:52:19.283Z,4.58
2018-03-21T12:55:25.926Z,3.60
2018-03-21T12:58:30.065Z,4.47
2018-03-21T13:01:33.373Z,3.62
2018-03-21T13:04:49.144Z,3.17
2018-03-21T13:07:55.925Z,3.17
2018-03-21T13:10:59.056Z,4.43
2018-03-21T13:14:02.187Z,2.77
2018-03-21T13:17:06.349Z,2.73
2018-03-21T13:20:19.633Z,2.50
2018-03-21T13:23:33.005Z,2.67
2018-03-21T13:26:36.192Z,3.47
2018-03-21T13:29:39.280Z,3.90
2018-03-21T13:32:52.433Z,4.20
2018-03-21T13:36:05.684Z,3.07
2018-03-21T13:39:09.009Z,4.92
2018-03-21T13:42:22.202Z,3.27
2018-03-21T13:45:25.384Z,2.67
2018-03-21T13:48:28.589Z,3.77
2018-03-21T13:51:31.725Z,2.67
2018-03-21T13:54:34.996Z,2.73
2018-03-21T13:57:38.576Z,3.37
2018-03-21T14:00:51.911Z,2.97
2018-03-21T14:03:55.321Z,3.53
2018-03-21T14:06:58.623Z,3.57
2018-03-21T14:10:05.385Z,3.90
2018-03-21T14:13:09.159Z,4.43
2018-03-21T14:16:12.430Z,2.45
2018-03-21T14:19:15.629Z,2.83
2018-03-21T14:22:19.895Z,3.47
2018-03-21T14:25:23.018Z,3.37
2018-03-21T14:28:35.842Z,4.10
2018-03-21T14:31:44.168Z,2.63
2018-03-21T14:34:47.440Z,3.80
2018-03-21T14:37:51.620Z,3.27
2018-03-21T14:40:58.793Z,2.73
2018-03-21T14:44:02.192Z,2.55
2018-03-21T14:47:09.330Z,2.20
2018-03-21T14:50:12.586Z,2.23
2018-03-21T14:53:20.189Z,2.97
2018-03-21T14:56:24.576Z,3.57
2018-03-21T14:59:27.784Z,5.70
2018-03-21T15:02:30.977Z,3.37
2018-03-21T15:05:36.139Z,2.10
2018-03-21T15:08:39.306Z,2.30
2018-03-21T15:11:45.603Z,3.63
2018-03-21T15:14:48.799Z,4.00
2018-03-21T15:17:52.952Z,3.67
2018-03-21T15:20:57.116Z,2.20
2018-03-21T15:24:00.232Z,3.90
2018-03-21T15:27:03.353Z,2.77
2018-03-21T15:30:07.519Z,3.80
2018-03-21T15:33:26.631Z,4.10
2018-03-21T15:36:29.875Z,3.27
2018-03-21T15:39:33.975Z,5.10
2018-03-21T15:42:47.177Z,4.07
2018-03-21T15:45:50.393Z,2.03
2018-03-21T15:49:03.360Z,4.90
2018-03-21T15:52:12.328Z,2.70
2018-03-21T15:55:15.519Z,2.83
2018-03-21T15:58:20.740Z,2.77
2018-03-21T16:01:23.929Z,3.27
2018-03-21T16:04:28.092Z,4.40
2018-03-21T16:07:32.237Z,2.63
2018-03-21T16:10:35.361Z,3.07
2018-03-21T16:13:39.515Z,2.37
2018-03-21T16:16:42.636Z,4.00
2018-03-21T16:19:49.341Z,3.13
2018-03-21T16:22:52.468Z,3.63
2018-03-21T16:25:55.572Z,2.97
2018-03-21T16:28:58.725Z,3.00
2018-03-21T16:32:01.801Z,3.43
2018-03-21T16:35:08.155Z,3.00
2018-03-21T16:38:12.307Z,2.53
2018-03-21T16:41:25.408Z,2.70
2018-03-21T16:44:28.592Z,3.42
2018-03-21T16:47:48.050Z,2.27
2018-03-21T16:50:51.243Z,2.30
2018-03-21T16:53:54.384Z,2.93
2018-03-21T16:56:58.675Z,3.67
2018-03-21T17:00:01.769Z,2.23
2018-03-21T17:03:13.021Z,3.73
2018-03-21T17:06:16.289Z,4.60
2018-03-21T17:09:24.249Z,12.53
2018-03-21T17:12:27.512Z,15.50
2018-03-21T17:15:34.367Z,5.83
2018-03-21T17:18:37.601Z,2.90
2018-03-21T17:21:40.881Z,4.40
2018-03-21T17:24:46.853Z,5.57
2018-03-21T17:27:50.170Z,5.87
2018-03-21T17:30:53.593Z,6.15
2018-03-21T17:33:57.058Z,7.75
2018-03-21T17:37:00.470Z,6.03
2018-03-21T17:40:04.105Z,12.20
2018-03-21T17:43:08.196Z,9.40
2018-03-21T17:46:11.473Z,6.27
2018-03-21T17:49:14.705Z,6.08
2018-03-21T17:52:19.241Z,3.73
2018-03-21T17:55:22.523Z,5.37
2018-03-21T17:58:32.220Z,8.43
2018-03-21T18:01:35.861Z,4.33
2018-03-21T18:04:57.325Z,4.83
2018-03-21T18:08:00.952Z,9.43
2018-03-21T18:11:04.402Z,5.15
2018-03-21T18:14:07.801Z,7.40
2018-03-21T18:17:12.134Z,6.00
2018-03-21T18:20:15.826Z,12.63
2018-03-21T18:23:19.230Z,9.53
2018-03-21T18:26:22.715Z,9.10
2018-03-21T18:29:29.810Z,10.03
2018-03-21T18:32:33.169Z,11.70
2018-03-21T18:35:36.468Z,9.38
2018-03-21T18:38:39.895Z,8.10
2018-03-21T18:41:44.124Z,9.63
2018-03-21T18:48:28.879Z,7.57
2018-03-21T18:51:32.263Z,12.10
2018-03-21T18:54:35.538Z,7.70
2018-03-21T18:57:39.127Z,8.83
2018-03-21T19:00:42.437Z,5.73
2018-03-21T19:03:46.226Z,4.83
2018-03-21T19:06:49.554Z,5.77
2018-03-21T19:09:53.518Z,6.60
2018-03-21T19:12:56.937Z,11.93
2018-03-21T19:16:00.234Z,11.73
2018-03-21T19:19:03.563Z,11.07
2018-03-21T19:22:06.798Z,14.07
2018-03-21T19:25:10.160Z,10.90
2018-03-21T19:28:13.486Z,9.80
2018-03-21T19:31:16.722Z,8.17
2018-03-21T19:34:20.774Z,9.03
2018-03-21T19:37:24.049Z,8.63
2018-03-21T19:40:27.393Z,10.97
2018-03-21T19:43:30.733Z,9.93
2018-03-21T19:46:33.969Z,6.07
2018-03-21T19:49:38.081Z,14.87
2018-03-21T19:52:47.303Z,7.83
2018-03-21T19:55:51.800Z,7.97
2018-03-21T20:02:40.950Z,21.27
2018-03-21T20:05:44.432Z,20.17
2018-03-21T20:08:51.430Z,21.90
2018-03-21T20:11:54.819Z,19.93
2018-03-21T20:14:58.127Z,9.43
2018-03-21T20:18:11.535Z,16.70
2018-03-21T20:21:27.062Z,12.40
2018-03-21T20:24:37.171Z,10.40
2018-03-21T20:27:40.622Z,37.47
2018-03-21T20:30:49.409Z,14.20
2018-03-21T20:33:58.427Z,11.20
2018-03-21T20:37:01.883Z,13.63
2018-03-21T20:40:24.864Z,21.90
2018-03-21T20:43:28.305Z,18.17
2018-03-21T20:46:44.961Z,15.50
2018-03-21T20:49:48.324Z,14.83
2018-03-21T20:52:56.512Z,15.20
2018-03-21T20:56:11.573Z,19.03
2018-03-21T20:59:29.582Z,17.83
2018-03-21T21:02:32.937Z,18.50
2018-03-21T21:05:36.453Z,18.63
2018-03-21T21:08:56.625Z,16.33
2018-03-21T21:12:02.438Z,15.27
2018-03-21T21:15:12.496Z,17.00
2018-03-21T21:18:16.063Z,14.63
2018-03-21T21:21:19.542Z,13.57
2018-03-21T21:24:30.554Z,14.70
2018-03-21T21:27:38.092Z,15.70
2018-03-21T21:30:41.608Z,15.23
2018-03-21T21:33:58.264Z,13.10
2018-03-21T21:37:01.766Z,16.07
2018-03-21T21:40:05.278Z,12.13
2018-03-21T21:43:10.816Z,13.23
2018-03-21T21:46:15.142Z,12.17
2018-03-21T21:49:24.340Z,14.90
2018-03-21T21:52:27.908Z,16.70
2018-03-21T21:55:31.425Z,16.40
2018-03-21T21:58:38.673Z,18.13
2018-03-21T22:01:42.136Z,18.80
2018-03-21T22:04:47.405Z,13.17
2018-03-21T22:07:52.857Z,17.53
2018-03-21T22:10:56.304Z,12.47
2018-03-21T22:14:00.700Z,13.53
2018-03-21T22:17:05.190Z,13.03
2018-03-21T22:20:21.214Z,13.20
2018-03-21T22:23:24.678Z,12.77
2018-03-21T22:26:28.253Z,10.90
2018-03-21T22:29:31.690Z,11.27
2018-03-21T22:32:35.144Z,8.83
2018-03-21T22:35:42.304Z,9.47
2018-03-21T22:38:45.820Z,8.07
2018-03-21T22:41:50.240Z,9.33
2018-03-21T22:44:53.695Z,10.33
2018-03-21T22:48:05.300Z,10.40
2018-03-21T22:51:14.828Z,9.80
2018-03-21T22:54:18.317Z,9.43
2018-03-21T22:57:26.488Z,9.83
2018-03-21T23:00:29.956Z,11.80
2018-03-21T23:03:35.391Z,11.13
2018-03-21T23:06:39.794Z,11.00
2018-03-21T23:09:43.341Z,12.33
2018-03-21T23:12:50.089Z,13.00
2018-03-21T23:15:56.876Z,12.27
2018-03-21T23:19:01.306Z,12.67
2018-03-21T23:22:12.835Z,16.13
2018-03-21T23:25:17.115Z,13.10
2018-03-21T23:28:20.564Z,13.53
2018-03-21T23:31:24.994Z,12.70
2018-03-21T23:34:29.548Z,10.57
2018-03-21T23:37:33.048Z,11.20
2018-03-21T23:40:36.560Z,11.13
2018-03-21T23:43:40.047Z,13.30
2018-03-21T23:46:45.083Z,10.00
2018-03-21T23:49:49.519Z,9.67
2018-03-21T23:52:55.023Z,9.67
2018-03-21T23:55:58.530Z,9.27
2018-03-21T23:59:03.915Z,9.10
